sensor_id;sensor_type;location;lat;lon;timestamp;P1;durP1;ratioP1;P2;durP2;ratioP2
53263;SDS011;39153;52.680;6.172;2024-02-04T00:01:43;25.38;;;10.05;;
53263;SDS011;39153;52.680;6.172;2024-02-04T00:04:09;22.10;;;8.13;;
53263;SDS011;39153;52.680;6.172;2024-02-04T00:06:34;20.10;;;7.78;;
53263;SDS011;39153;52.680;6.172;2024-02-04T00:09:00;22.80;;;7.53;;
53263;SDS011;39153;52.680;6.172;2024-02-04T00:11:26;21.05;;;7.57;;
53263;SDS011;39153;52.680;6.172;2024-02-04T00:13:52;26.45;;;8.48;;
53263;SDS011;39153;52.680;6.172;2024-02-04T00:16:18;23.30;;;8.20;;
53263;SDS011;39153;52.680;6.172;2024-02-04T00:18:43;25.02;;;8.93;;
53263;SDS011;39153;52.680;6.172;2024-02-04T00:21:09;26.48;;;8.50;;
53263;SDS011;39153;52.680;6.172;2024-02-04T00:23:35;24.73;;;8.85;;
53263;SDS011;39153;52.680;6.172;2024-02-04T00:26:00;24.02;;;8.32;;
53263;SDS011;39153;52.680;6.172;2024-02-04T00:28:26;24.60;;;8.50;;
53263;SDS011;39153;52.680;6.172;2024-02-04T00:30:53;25.08;;;8.60;;
53263;SDS011;39153;52.680;6.172;2024-02-04T00:33:21;21.27;;;8.75;;
53263;SDS011;39153;52.680;6.172;2024-02-04T00:35:47;22.85;;;9.05;;
53263;SDS011;39153;52.680;6.172;2024-02-04T00:38:13;23.73;;;8.70;;
53263;SDS011;39153;52.680;6.172;2024-02-04T00:40:38;19.75;;;8.05;;
53263;SDS011;39153;52.680;6.172;2024-02-04T00:43:04;23.63;;;8.93;;
53263;SDS011;39153;52.680;6.172;2024-02-04T00:45:30;25.52;;;9.00;;
53263;SDS011;39153;52.680;6.172;2024-02-04T00:47:56;23.23;;;9.30;;
53263;SDS011;39153;52.680;6.172;2024-02-04T00:50:22;27.30;;;10.27;;
53263;SDS011;39153;52.680;6.172;2024-02-04T00:52:47;25.85;;;10.48;;
53263;SDS011;39153;52.680;6.172;2024-02-04T00:55:13;31.20;;;10.45;;
53263;SDS011;39153;52.680;6.172;2024-02-04T00:57:39;28.13;;;9.73;;
53263;SDS011;39153;52.680;6.172;2024-02-04T01:00:05;25.27;;;11.32;;
53263;SDS011;39153;52.680;6.172;2024-02-04T01:02:31;24.23;;;10.75;;
53263;SDS011;39153;52.680;6.172;2024-02-04T01:04:56;25.75;;;11.70;;
53263;SDS011;39153;52.680;6.172;2024-02-04T01:07:22;25.90;;;12.05;;
53263;SDS011;39153;52.680;6.172;2024-02-04T01:09:48;37.33;;;13.48;;
53263;SDS011;39153;52.680;6.172;2024-02-04T01:12:13;29.77;;;14.32;;
53263;SDS011;39153;52.680;6.172;2024-02-04T01:14:39;35.10;;;15.05;;
53263;SDS011;39153;52.680;6.172;2024-02-04T01:17:05;34.42;;;15.35;;
53263;SDS011;39153;52.680;6.172;2024-02-04T01:19:30;35.28;;;15.68;;
53263;SDS011;39153;52.680;6.172;2024-02-04T01:21:56;38.15;;;15.52;;
53263;SDS011;39153;52.680;6.172;2024-02-04T01:24:23;37.30;;;14.52;;
53263;SDS011;39153;52.680;6.172;2024-02-04T01:26:50;34.72;;;13.93;;
53263;SDS011;39153;52.680;6.172;2024-02-04T01:29:15;34.33;;;13.32;;
53263;SDS011;39153;52.680;6.172;2024-02-04T01:31:41;29.40;;;12.90;;
53263;SDS011;39153;52.680;6.172;2024-02-04T01:34:07;37.08;;;12.98;;
53263;SDS011;39153;52.680;6.172;2024-02-04T01:36:33;33.10;;;13.10;;
53263;SDS011;39153;52.680;6.172;2024-02-04T01:38:58;33.47;;;12.32;;
53263;SDS011;39153;52.680;6.172;2024-02-04T01:41:24;26.58;;;12.93;;
53263;SDS011;39153;52.680;6.172;2024-02-04T01:43:52;28.27;;;13.30;;
53263;SDS011;39153;52.680;6.172;2024-02-04T01:46:18;32.08;;;11.38;;
53263;SDS011;39153;52.680;6.172;2024-02-04T01:48:44;26.45;;;11.02;;
53263;SDS011;39153;52.680;6.172;2024-02-04T01:51:10;25.92;;;10.52;;
53263;SDS011;39153;52.680;6.172;2024-02-04T01:53:38;21.75;;;9.45;;
53263;SDS011;39153;52.680;6.172;2024-02-04T01:56:05;18.60;;;7.95;;
53263;SDS011;39153;52.680;6.172;2024-02-04T01:58:31;22.27;;;7.43;;
53263;SDS011;39153;52.680;6.172;2024-02-04T02:00:58;21.30;;;6.97;;
53263;SDS011;39153;52.680;6.172;2024-02-04T02:03:24;14.07;;;6.03;;
53263;SDS011;39153;52.680;6.172;2024-02-04T02:05:51;15.85;;;6.18;;
53263;SDS011;39153;52.680;6.172;2024-02-04T02:08:17;16.17;;;6.35;;
53263;SDS011;39153;52.680;6.172;2024-02-04T02:10:43;19.02;;;5.55;;
53263;SDS011;39153;52.680;6.172;2024-02-04T02:13:23;14.68;;;5.63;;
53263;SDS011;39153;52.680;6.172;2024-02-04T02:15:52;14.48;;;5.47;;
53263;SDS011;39153;52.680;6.172;2024-02-04T02:18:25;14.73;;;5.78;;
53263;SDS011;39153;52.680;6.172;2024-02-04T02:23:34;16.60;;;5.07;;
53263;SDS011;39153;52.680;6.172;2024-02-04T02:26:02;14.02;;;5.00;;
53263;SDS011;39153;52.680;6.172;2024-02-04T02:28:29;14.43;;;4.82;;
53263;SDS011;39153;52.680;6.172;2024-02-04T02:30:55;12.23;;;5.18;;
53263;SDS011;39153;52.680;6.172;2024-02-04T02:33:20;15.15;;;5.65;;
53263;SDS011;39153;52.680;6.172;2024-02-04T02:35:46;14.05;;;6.32;;
53263;SDS011;39153;52.680;6.172;2024-02-04T02:40:59;15.18;;;5.18;;
53263;SDS011;39153;52.680;6.172;2024-02-04T02:43:28;9.75;;;5.00;;
53263;SDS011;39153;52.680;6.172;2024-02-04T02:45:55;10.43;;;4.55;;
53263;SDS011;39153;52.680;6.172;2024-02-04T02:48:22;15.35;;;4.60;;
53263;SDS011;39153;52.680;6.172;2024-02-04T02:50:49;14.27;;;4.22;;
53263;SDS011;39153;52.680;6.172;2024-02-04T02:53:14;12.40;;;4.18;;
53263;SDS011;39153;52.680;6.172;2024-02-04T02:55:41;12.35;;;3.33;;
53263;SDS011;39153;52.680;6.172;2024-02-04T02:58:06;9.80;;;3.95;;
53263;SDS011;39153;52.680;6.172;2024-02-04T03:00:32;14.63;;;3.17;;
53263;SDS011;39153;52.680;6.172;2024-02-04T03:02:58;9.25;;;3.00;;
53263;SDS011;39153;52.680;6.172;2024-02-04T03:05:24;13.07;;;2.90;;
53263;SDS011;39153;52.680;6.172;2024-02-04T03:07:50;14.18;;;2.80;;
53263;SDS011;39153;52.680;6.172;2024-02-04T03:10:15;14.50;;;2.70;;
53263;SDS011;39153;52.680;6.172;2024-02-04T03:12:41;16.58;;;3.20;;
53263;SDS011;39153;52.680;6.172;2024-02-04T03:15:07;12.48;;;2.35;;
53263;SDS011;39153;52.680;6.172;2024-02-04T03:17:33;14.45;;;2.47;;
53263;SDS011;39153;52.680;6.172;2024-02-04T03:19:58;13.27;;;2.15;;
53263;SDS011;39153;52.680;6.172;2024-02-04T03:22:24;14.20;;;2.33;;
53263;SDS011;39153;52.680;6.172;2024-02-04T03:24:50;13.00;;;2.20;;
53263;SDS011;39153;52.680;6.172;2024-02-04T03:27:17;9.88;;;2.03;;
53263;SDS011;39153;52.680;6.172;2024-02-04T03:29:42;11.77;;;2.40;;
53263;SDS011;39153;52.680;6.172;2024-02-04T03:32:08;10.68;;;2.20;;
53263;SDS011;39153;52.680;6.172;2024-02-04T03:34:35;10.38;;;1.90;;
53263;SDS011;39153;52.680;6.172;2024-02-04T03:37:01;9.48;;;2.00;;
53263;SDS011;39153;52.680;6.172;2024-02-04T03:39:27;12.93;;;2.42;;
53263;SDS011;39153;52.680;6.172;2024-02-04T03:41:52;8.68;;;1.65;;
53263;SDS011;39153;52.680;6.172;2024-02-04T03:44:18;8.05;;;1.77;;
53263;SDS011;39153;52.680;6.172;2024-02-04T03:46:47;13.90;;;2.80;;
53263;SDS011;39153;52.680;6.172;2024-02-04T03:49:13;9.98;;;2.00;;
53263;SDS011;39153;52.680;6.172;2024-02-04T03:51:39;10.27;;;1.88;;
53263;SDS011;39153;52.680;6.172;2024-02-04T03:54:05;13.15;;;2.60;;
53263;SDS011;39153;52.680;6.172;2024-02-04T03:56:31;15.45;;;2.60;;
53263;SDS011;39153;52.680;6.172;2024-02-04T03:58:56;8.13;;;2.35;;
53263;SDS011;39153;52.680;6.172;2024-02-04T04:01:22;11.30;;;2.30;;
53263;SDS011;39153;52.680;6.172;2024-02-04T04:03:48;15.40;;;2.40;;
53263;SDS011;39153;52.680;6.172;2024-02-04T04:06:14;15.63;;;1.98;;
53263;SDS011;39153;52.680;6.172;2024-02-04T04:08:40;14.32;;;2.38;;
53263;SDS011;39153;52.680;6.172;2024-02-04T04:11:07;10.23;;;2.45;;
53263;SDS011;39153;52.680;6.172;2024-02-04T04:13:34;12.80;;;2.40;;
53263;SDS011;39153;52.680;6.172;2024-02-04T04:16:00;10.77;;;2.10;;
53263;SDS011;39153;52.680;6.172;2024-02-04T04:18:26;10.48;;;2.13;;
53263;SDS011;39153;52.680;6.172;2024-02-04T04:20:52;8.75;;;1.85;;
53263;SDS011;39153;52.680;6.172;2024-02-04T04:23:18;13.57;;;2.42;;
53263;SDS011;39153;52.680;6.172;2024-02-04T04:25:43;15.35;;;2.63;;
53263;SDS011;39153;52.680;6.172;2024-02-04T04:28:09;11.57;;;2.30;;
53263;SDS011;39153;52.680;6.172;2024-02-04T04:30:35;13.68;;;2.25;;
53263;SDS011;39153;52.680;6.172;2024-02-04T04:33:00;13.15;;;2.45;;
53263;SDS011;39153;52.680;6.172;2024-02-04T04:35:26;12.50;;;2.08;;
53263;SDS011;39153;52.680;6.172;2024-02-04T04:37:52;16.00;;;2.72;;
53263;SDS011;39153;52.680;6.172;2024-02-04T04:40:18;10.10;;;1.98;;
53263;SDS011;39153;52.680;6.172;2024-02-04T04:42:43;9.13;;;2.30;;
53263;SDS011;39153;52.680;6.172;2024-02-04T04:45:09;8.77;;;2.00;;
53263;SDS011;39153;52.680;6.172;2024-02-04T04:47:36;13.40;;;2.38;;
53263;SDS011;39153;52.680;6.172;2024-02-04T04:50:02;16.65;;;3.00;;
53263;SDS011;39153;52.680;6.172;2024-02-04T04:52:29;7.13;;;1.70;;
53263;SDS011;39153;52.680;6.172;2024-02-04T04:54:55;15.98;;;2.45;;
53263;SDS011;39153;52.680;6.172;2024-02-04T04:57:21;10.48;;;2.20;;
53263;SDS011;39153;52.680;6.172;2024-02-04T04:59:47;9.23;;;1.60;;
53263;SDS011;39153;52.680;6.172;2024-02-04T05:02:13;11.40;;;1.92;;
53263;SDS011;39153;52.680;6.172;2024-02-04T05:04:41;8.88;;;1.83;;
53263;SDS011;39153;52.680;6.172;2024-02-04T05:07:10;10.55;;;1.92;;
53263;SDS011;39153;52.680;6.172;2024-02-04T05:09:36;14.68;;;2.10;;
53263;SDS011;39153;52.680;6.172;2024-02-04T05:12:02;8.38;;;1.80;;
53263;SDS011;39153;52.680;6.172;2024-02-04T05:14:28;15.05;;;2.10;;
53263;SDS011;39153;52.680;6.172;2024-02-04T05:16:54;13.30;;;1.63;;
53263;SDS011;39153;52.680;6.172;2024-02-04T05:19:20;9.90;;;2.13;;
53263;SDS011;39153;52.680;6.172;2024-02-04T05:21:46;15.15;;;2.28;;
53263;SDS011;39153;52.680;6.172;2024-02-04T05:24:11;10.98;;;2.08;;
53263;SDS011;39153;52.680;6.172;2024-02-04T05:26:37;11.25;;;1.73;;
53263;SDS011;39153;52.680;6.172;2024-02-04T05:29:03;7.15;;;1.70;;
53263;SDS011;39153;52.680;6.172;2024-02-04T05:31:28;7.65;;;2.05;;
53263;SDS011;39153;52.680;6.172;2024-02-04T05:33:55;13.20;;;2.05;;
53263;SDS011;39153;52.680;6.172;2024-02-04T05:36:21;10.98;;;2.03;;
53263;SDS011;39153;52.680;6.172;2024-02-04T05:38:47;12.35;;;1.98;;
53263;SDS011;39153;52.680;6.172;2024-02-04T05:41:12;13.07;;;2.00;;
53263;SDS011;39153;52.680;6.172;2024-02-04T05:43:38;8.98;;;1.90;;
53263;SDS011;39153;52.680;6.172;2024-02-04T05:46:04;14.02;;;1.90;;
53263;SDS011;39153;52.680;6.172;2024-02-04T05:48:30;8.98;;;1.70;;
53263;SDS011;39153;52.680;6.172;2024-02-04T05:50:56;17.17;;;2.45;;
53263;SDS011;39153;52.680;6.172;2024-02-04T05:53:21;11.13;;;1.95;;
53263;SDS011;39153;52.680;6.172;2024-02-04T05:55:47;17.95;;;2.10;;
53263;SDS011;39153;52.680;6.172;2024-02-04T05:58:13;12.27;;;1.70;;
53263;SDS011;39153;52.680;6.172;2024-02-04T06:00:39;13.35;;;2.05;;
53263;SDS011;39153;52.680;6.172;2024-02-04T06:03:05;12.70;;;2.10;;
53263;SDS011;39153;52.680;6.172;2024-02-04T06:05:31;13.20;;;2.40;;
53263;SDS011;39153;52.680;6.172;2024-02-04T06:07:57;14.73;;;2.00;;
53263;SDS011;39153;52.680;6.172;2024-02-04T06:10:23;13.35;;;2.35;;
53263;SDS011;39153;52.680;6.172;2024-02-04T06:12:49;15.32;;;2.08;;
53263;SDS011;39153;52.680;6.172;2024-02-04T06:15:15;11.45;;;2.20;;
53263;SDS011;39153;52.680;6.172;2024-02-04T06:17:41;15.50;;;1.95;;
53263;SDS011;39153;52.680;6.172;2024-02-04T06:20:07;11.65;;;2.00;;
53263;SDS011;39153;52.680;6.172;2024-02-04T06:22:36;13.50;;;2.10;;
53263;SDS011;39153;52.680;6.172;2024-02-04T06:25:05;13.98;;;2.42;;
53263;SDS011;39153;52.680;6.172;2024-02-04T06:27:31;15.30;;;2.55;;
53263;SDS011;39153;52.680;6.172;2024-02-04T06:29:56;16.25;;;2.50;;
53263;SDS011;39153;52.680;6.172;2024-02-04T06:32:22;13.38;;;2.50;;
53263;SDS011;39153;52.680;6.172;2024-02-04T06:34:50;17.15;;;2.47;;
53263;SDS011;39153;52.680;6.172;2024-02-04T06:37:16;19.10;;;3.22;;
53263;SDS011;39153;52.680;6.172;2024-02-04T06:39:42;21.08;;;2.78;;
53263;SDS011;39153;52.680;6.172;2024-02-04T06:42:08;12.25;;;2.03;;
53263;SDS011;39153;52.680;6.172;2024-02-04T06:44:34;13.95;;;2.58;;
53263;SDS011;39153;52.680;6.172;2024-02-04T06:46:59;12.63;;;2.03;;
53263;SDS011;39153;52.680;6.172;2024-02-04T06:49:25;16.05;;;2.42;;
53263;SDS011;39153;52.680;6.172;2024-02-04T06:51:51;15.60;;;2.20;;
53263;SDS011;39153;52.680;6.172;2024-02-04T06:54:21;13.20;;;2.28;;
53263;SDS011;39153;52.680;6.172;2024-02-04T06:56:51;16.42;;;2.65;;
53263;SDS011;39153;52.680;6.172;2024-02-04T06:59:18;15.38;;;2.42;;
53263;SDS011;39153;52.680;6.172;2024-02-04T07:01:43;12.15;;;2.45;;
53263;SDS011;39153;52.680;6.172;2024-02-04T07:04:09;16.50;;;2.35;;
53263;SDS011;39153;52.680;6.172;2024-02-04T07:06:35;18.95;;;2.42;;
53263;SDS011;39153;52.680;6.172;2024-02-04T07:09:00;13.65;;;2.83;;
53263;SDS011;39153;52.680;6.172;2024-02-04T07:11:26;18.30;;;2.75;;
53263;SDS011;39153;52.680;6.172;2024-02-04T07:13:51;12.25;;;1.92;;
53263;SDS011;39153;52.680;6.172;2024-02-04T07:16:24;16.70;;;2.08;;
53263;SDS011;39153;52.680;6.172;2024-02-04T07:18:50;17.35;;;2.40;;
53263;SDS011;39153;52.680;6.172;2024-02-04T07:21:16;15.88;;;2.63;;
53263;SDS011;39153;52.680;6.172;2024-02-04T07:23:41;18.58;;;2.72;;
53263;SDS011;39153;52.680;6.172;2024-02-04T07:26:07;14.60;;;2.25;;
53263;SDS011;39153;52.680;6.172;2024-02-04T07:28:33;10.25;;;2.10;;
53263;SDS011;39153;52.680;6.172;2024-02-04T07:30:59;14.40;;;2.35;;
53263;SDS011;39153;52.680;6.172;2024-02-04T07:33:25;13.43;;;2.30;;
53263;SDS011;39153;52.680;6.172;2024-02-04T07:35:51;18.90;;;2.65;;
53263;SDS011;39153;52.680;6.172;2024-02-04T07:38:16;13.30;;;2.55;;
53263;SDS011;39153;52.680;6.172;2024-02-04T07:40:42;17.48;;;2.60;;
53263;SDS011;39153;52.680;6.172;2024-02-04T07:43:08;14.82;;;2.78;;
53263;SDS011;39153;52.680;6.172;2024-02-04T07:45:34;11.90;;;2.42;;
53263;SDS011;39153;52.680;6.172;2024-02-04T07:48:00;12.63;;;2.00;;
53263;SDS011;39153;52.680;6.172;2024-02-04T07:50:27;12.93;;;2.47;;
53263;SDS011;39153;52.680;6.172;2024-02-04T07:52:52;14.80;;;2.67;;
53263;SDS011;39153;52.680;6.172;2024-02-04T07:55:18;10.65;;;2.25;;
53263;SDS011;39153;52.680;6.172;2024-02-04T07:57:44;16.33;;;2.50;;
53263;SDS011;39153;52.680;6.172;2024-02-04T08:00:10;8.98;;;2.10;;
53263;SDS011;39153;52.680;6.172;2024-02-04T08:02:36;9.60;;;1.77;;
53263;SDS011;39153;52.680;6.172;2024-02-04T08:05:03;10.02;;;2.20;;
53263;SDS011;39153;52.680;6.172;2024-02-04T08:07:32;10.13;;;2.03;;
53263;SDS011;39153;52.680;6.172;2024-02-04T08:09:57;8.45;;;2.13;;
53263;SDS011;39153;52.680;6.172;2024-02-04T08:12:23;10.85;;;2.17;;
53263;SDS011;39153;52.680;6.172;2024-02-04T08:14:49;6.68;;;2.47;;
53263;SDS011;39153;52.680;6.172;2024-02-04T08:17:14;11.73;;;2.13;;
53263;SDS011;39153;52.680;6.172;2024-02-04T08:19:40;6.63;;;1.48;;
53263;SDS011;39153;52.680;6.172;2024-02-04T08:22:06;7.95;;;1.73;;
53263;SDS011;39153;52.680;6.172;2024-02-04T08:24:32;9.18;;;2.33;;
53263;SDS011;39153;52.680;6.172;2024-02-04T08:26:59;8.10;;;2.00;;
53263;SDS011;39153;52.680;6.172;2024-02-04T08:29:24;7.22;;;1.90;;
53263;SDS011;39153;52.680;6.172;2024-02-04T08:31:51;6.18;;;1.63;;
53263;SDS011;39153;52.680;6.172;2024-02-04T08:34:17;8.80;;;1.70;;
53263;SDS011;39153;52.680;6.172;2024-02-04T08:36:45;9.63;;;2.10;;
53263;SDS011;39153;52.680;6.172;2024-02-04T08:39:11;9.07;;;1.85;;
53263;SDS011;39153;52.680;6.172;2024-02-04T08:41:37;10.68;;;2.15;;
53263;SDS011;39153;52.680;6.172;2024-02-04T08:44:02;7.22;;;1.63;;
53263;SDS011;39153;52.680;6.172;2024-02-04T08:46:28;9.77;;;2.05;;
53263;SDS011;39153;52.680;6.172;2024-02-04T08:48:54;12.85;;;2.92;;
53263;SDS011;39153;52.680;6.172;2024-02-04T08:51:19;9.30;;;2.15;;
53263;SDS011;39153;52.680;6.172;2024-02-04T08:53:45;7.85;;;1.98;;
53263;SDS011;39153;52.680;6.172;2024-02-04T08:56:11;9.32;;;1.75;;
53263;SDS011;39153;52.680;6.172;2024-02-04T08:58:36;6.78;;;1.73;;
53263;SDS011;39153;52.680;6.172;2024-02-04T09:01:03;6.80;;;1.70;;
53263;SDS011;39153;52.680;6.172;2024-02-04T09:03:30;6.78;;;1.95;;
53263;SDS011;39153;52.680;6.172;2024-02-04T09:05:56;5.97;;;1.85;;
53263;SDS011;39153;52.680;6.172;2024-02-04T09:08:22;5.60;;;1.65;;
53263;SDS011;39153;52.680;6.172;2024-02-04T09:10:48;6.57;;;1.58;;
53263;SDS011;39153;52.680;6.172;2024-02-04T09:13:14;6.18;;;1.63;;
53263;SDS011;39153;52.680;6.172;2024-02-04T09:15:39;6.65;;;1.50;;
53263;SDS011;39153;52.680;6.172;2024-02-04T09:18:05;10.07;;;1.95;;
53263;SDS011;39153;52.680;6.172;2024-02-04T09:20:31;7.85;;;2.13;;
53263;SDS011;39153;52.680;6.172;2024-02-04T09:22:56;7.07;;;1.90;;
53263;SDS011;39153;52.680;6.172;2024-02-04T09:25:22;8.13;;;2.40;;
53263;SDS011;39153;52.680;6.172;2024-02-04T09:27:49;7.28;;;2.40;;
53263;SDS011;39153;52.680;6.172;2024-02-04T09:30:15;7.55;;;2.42;;
53263;SDS011;39153;52.680;6.172;2024-02-04T09:32:41;7.22;;;2.10;;
53263;SDS011;39153;52.680;6.172;2024-02-04T09:35:07;5.38;;;2.25;;
53263;SDS011;39153;52.680;6.172;2024-02-04T09:37:34;6.72;;;2.50;;
53263;SDS011;39153;52.680;6.172;2024-02-04T09:40:00;8.55;;;2.90;;
53263;SDS011;39153;52.680;6.172;2024-02-04T09:42:26;8.50;;;3.38;;
53263;SDS011;39153;52.680;6.172;2024-02-04T09:44:53;10.10;;;3.55;;
53263;SDS011;39153;52.680;6.172;2024-02-04T09:47:19;8.85;;;2.92;;
53263;SDS011;39153;52.680;6.172;2024-02-04T09:49:46;8.32;;;2.80;;
53263;SDS011;39153;52.680;6.172;2024-02-04T09:52:12;8.65;;;2.83;;
53263;SDS011;39153;52.680;6.172;2024-02-04T09:55:00;9.57;;;3.08;;
53263;SDS011;39153;52.680;6.172;2024-02-04T09:57:25;11.48;;;3.03;;
53263;SDS011;39153;52.680;6.172;2024-02-04T09:59:51;7.55;;;3.13;;
53263;SDS011;39153;52.680;6.172;2024-02-04T10:02:17;9.05;;;3.15;;
53263;SDS011;39153;52.680;6.172;2024-02-04T10:04:43;8.43;;;2.72;;
53263;SDS011;39153;52.680;6.172;2024-02-04T10:07:09;10.43;;;3.03;;
53263;SDS011;39153;52.680;6.172;2024-02-04T10:09:35;10.55;;;2.75;;
53263;SDS011;39153;52.680;6.172;2024-02-04T10:12:00;9.85;;;2.63;;
53263;SDS011;39153;52.680;6.172;2024-02-04T10:14:26;9.07;;;3.13;;
53263;SDS011;39153;52.680;6.172;2024-02-04T10:16:52;8.52;;;2.90;;
53263;SDS011;39153;52.680;6.172;2024-02-04T10:19:18;7.22;;;3.35;;
53263;SDS011;39153;52.680;6.172;2024-02-04T10:21:44;11.30;;;3.85;;
53263;SDS011;39153;52.680;6.172;2024-02-04T10:24:09;14.07;;;3.72;;
53263;SDS011;39153;52.680;6.172;2024-02-04T10:26:35;6.53;;;3.40;;
53263;SDS011;39153;52.680;6.172;2024-02-04T10:29:02;10.40;;;3.70;;
53263;SDS011;39153;52.680;6.172;2024-02-04T10:31:28;11.50;;;3.67;;
53263;SDS011;39153;52.680;6.172;2024-02-04T10:33:54;8.13;;;3.58;;
53263;SDS011;39153;52.680;6.172;2024-02-04T10:36:21;6.78;;;3.42;;
53263;SDS011;39153;52.680;6.172;2024-02-04T10:38:47;10.05;;;3.63;;
53263;SDS011;39153;52.680;6.172;2024-02-04T10:41:14;9.38;;;3.60;;
53263;SDS011;39153;52.680;6.172;2024-02-04T10:43:42;8.98;;;3.45;;
53263;SDS011;39153;52.680;6.172;2024-02-04T10:46:09;10.52;;;4.10;;
53263;SDS011;39153;52.680;6.172;2024-02-04T10:48:42;12.32;;;3.67;;
53263;SDS011;39153;52.680;6.172;2024-02-04T10:51:15;12.48;;;3.90;;
53263;SDS011;39153;52.680;6.172;2024-02-04T10:53:43;12.35;;;3.35;;
53263;SDS011;39153;52.680;6.172;2024-02-04T10:56:23;14.18;;;3.38;;
53263;SDS011;39153;52.680;6.172;2024-02-04T10:58:54;9.73;;;3.08;;
53263;SDS011;39153;52.680;6.172;2024-02-04T11:01:21;9.65;;;3.08;;
53263;SDS011;39153;52.680;6.172;2024-02-04T11:03:48;10.40;;;3.30;;
53263;SDS011;39153;52.680;6.172;2024-02-04T11:06:16;9.15;;;3.42;;
53263;SDS011;39153;52.680;6.172;2024-02-04T11:08:43;9.60;;;3.15;;
53263;SDS011;39153;52.680;6.172;2024-02-04T11:11:09;11.88;;;3.58;;
53263;SDS011;39153;52.680;6.172;2024-02-04T11:13:35;10.30;;;3.50;;
53263;SDS011;39153;52.680;6.172;2024-02-04T11:16:04;11.77;;;3.20;;
53263;SDS011;39153;52.680;6.172;2024-02-04T11:24:22;7.68;;;2.63;;
53263;SDS011;39153;52.680;6.172;2024-02-04T11:27:18;7.95;;;2.47;;
53263;SDS011;39153;52.680;6.172;2024-02-04T11:29:44;6.40;;;2.10;;
53263;SDS011;39153;52.680;6.172;2024-02-04T11:32:10;7.20;;;2.80;;
53263;SDS011;39153;52.680;6.172;2024-02-04T11:34:37;7.50;;;2.22;;
53263;SDS011;39153;52.680;6.172;2024-02-04T11:37:13;8.40;;;2.58;;
53263;SDS011;39153;52.680;6.172;2024-02-04T11:39:47;10.65;;;2.55;;
53263;SDS011;39153;52.680;6.172;2024-02-04T11:42:14;11.10;;;2.50;;
53263;SDS011;39153;52.680;6.172;2024-02-04T11:44:41;7.47;;;2.00;;
53263;SDS011;39153;52.680;6.172;2024-02-04T11:47:06;10.63;;;2.60;;
53263;SDS011;39153;52.680;6.172;2024-02-04T11:49:32;10.80;;;2.50;;
53263;SDS011;39153;52.680;6.172;2024-02-04T11:51:58;7.68;;;1.70;;
53263;SDS011;39153;52.680;6.172;2024-02-04T11:54:25;7.13;;;1.50;;
53263;SDS011;39153;52.680;6.172;2024-02-04T11:56:51;5.72;;;1.80;;
53263;SDS011;39153;52.680;6.172;2024-02-04T11:59:22;6.47;;;1.55;;
53263;SDS011;39153;52.680;6.172;2024-02-04T12:01:49;7.15;;;1.33;;
53263;SDS011;39153;52.680;6.172;2024-02-04T12:04:18;5.53;;;1.45;;
53263;SDS011;39153;52.680;6.172;2024-02-04T12:06:44;6.53;;;1.30;;
53263;SDS011;39153;52.680;6.172;2024-02-04T12:09:10;7.25;;;1.20;;
53263;SDS011;39153;52.680;6.172;2024-02-04T12:11:37;6.10;;;1.20;;
53263;SDS011;39153;52.680;6.172;2024-02-04T12:14:04;7.13;;;1.17;;
53263;SDS011;39153;52.680;6.172;2024-02-04T12:16:32;5.07;;;1.10;;
53263;SDS011;39153;52.680;6.172;2024-02-04T12:19:00;8.82;;;1.25;;
53263;SDS011;39153;52.680;6.172;2024-02-04T12:21:28;6.07;;;1.20;;
53263;SDS011;39153;52.680;6.172;2024-02-04T12:23:54;4.43;;;1.40;;
53263;SDS011;39153;52.680;6.172;2024-02-04T12:26:21;5.72;;;1.33;;
53263;SDS011;39153;52.680;6.172;2024-02-04T12:28:48;6.65;;;1.10;;
53263;SDS011;39153;52.680;6.172;2024-02-04T12:31:18;4.88;;;1.30;;
53263;SDS011;39153;52.680;6.172;2024-02-04T12:33:54;8.88;;;1.45;;
53263;SDS011;39153;52.680;6.172;2024-02-04T12:36:23;7.47;;;1.23;;
53263;SDS011;39153;52.680;6.172;2024-02-04T12:39:01;6.57;;;1.27;;
53263;SDS011;39153;52.680;6.172;2024-02-04T12:41:28;4.05;;;1.25;;
53263;SDS011;39153;52.680;6.172;2024-02-04T12:43:55;4.63;;;1.00;;
53263;SDS011;39153;52.680;6.172;2024-02-04T12:46:23;3.55;;;1.33;;
53263;SDS011;39153;52.680;6.172;2024-02-04T12:48:52;3.47;;;1.15;;
53263;SDS011;39153;52.680;6.172;2024-02-04T12:51:31;4.35;;;1.17;;
53263;SDS011;39153;52.680;6.172;2024-02-04T12:54:16;6.38;;;1.30;;
53263;SDS011;39153;52.680;6.172;2024-02-04T12:56:47;6.15;;;1.35;;
53263;SDS011;39153;52.680;6.172;2024-02-04T12:59:24;6.95;;;1.45;;
53263;SDS011;39153;52.680;6.172;2024-02-04T13:01:54;6.55;;;1.17;;
53263;SDS011;39153;52.680;6.172;2024-02-04T13:04:23;5.00;;;1.10;;
53263;SDS011;39153;52.680;6.172;2024-02-04T13:06:50;7.55;;;1.70;;
53263;SDS011;39153;52.680;6.172;2024-02-04T13:09:16;6.75;;;1.17;;
53263;SDS011;39153;52.680;6.172;2024-02-04T13:11:43;6.72;;;1.75;;
53263;SDS011;39153;52.680;6.172;2024-02-04T13:14:09;8.05;;;1.70;;
53263;SDS011;39153;52.680;6.172;2024-02-04T13:16:35;7.10;;;1.50;;
53263;SDS011;39153;52.680;6.172;2024-02-04T13:19:02;6.75;;;1.40;;
53263;SDS011;39153;52.680;6.172;2024-02-04T13:21:28;8.75;;;1.60;;
53263;SDS011;39153;52.680;6.172;2024-02-04T13:23:54;7.07;;;1.60;;
53263;SDS011;39153;52.680;6.172;2024-02-04T13:26:20;6.60;;;1.42;;
53263;SDS011;39153;52.680;6.172;2024-02-04T13:28:45;10.00;;;1.75;;
53263;SDS011;39153;52.680;6.172;2024-02-04T13:31:11;11.70;;;1.75;;
53263;SDS011;39153;52.680;6.172;2024-02-04T13:33:40;9.55;;;2.00;;
53263;SDS011;39153;52.680;6.172;2024-02-04T13:36:09;8.95;;;2.00;;
53263;SDS011;39153;52.680;6.172;2024-02-04T13:38:36;9.15;;;1.92;;
53263;SDS011;39153;52.680;6.172;2024-02-04T13:41:02;8.05;;;1.80;;
53263;SDS011;39153;52.680;6.172;2024-02-04T13:43:33;7.32;;;1.42;;
53263;SDS011;39153;52.680;6.172;2024-02-04T13:46:02;10.43;;;1.65;;
53263;SDS011;39153;52.680;6.172;2024-02-04T13:48:28;6.07;;;1.60;;
53263;SDS011;39153;52.680;6.172;2024-02-04T13:50:54;9.23;;;1.85;;
53263;SDS011;39153;52.680;6.172;2024-02-04T13:53:20;8.43;;;1.60;;
53263;SDS011;39153;52.680;6.172;2024-02-04T13:55:46;7.35;;;1.83;;
53263;SDS011;39153;52.680;6.172;2024-02-04T13:58:13;9.57;;;1.60;;
53263;SDS011;39153;52.680;6.172;2024-02-04T14:00:39;4.57;;;1.27;;
53263;SDS011;39153;52.680;6.172;2024-02-04T14:03:05;7.22;;;1.60;;
53263;SDS011;39153;52.680;6.172;2024-02-04T14:05:32;6.55;;;1.70;;
53263;SDS011;39153;52.680;6.172;2024-02-04T14:07:58;6.70;;;1.45;;
53263;SDS011;39153;52.680;6.172;2024-02-04T14:10:23;7.03;;;1.52;;
53263;SDS011;39153;52.680;6.172;2024-02-04T14:12:49;7.50;;;1.63;;
53263;SDS011;39153;52.680;6.172;2024-02-04T14:15:15;6.72;;;1.33;;
53263;SDS011;39153;52.680;6.172;2024-02-04T14:17:41;5.70;;;1.15;;
53263;SDS011;39153;52.680;6.172;2024-02-04T14:20:07;8.68;;;1.40;;
53263;SDS011;39153;52.680;6.172;2024-02-04T14:22:34;6.63;;;1.42;;
53263;SDS011;39153;52.680;6.172;2024-02-04T14:25:00;9.20;;;1.42;;
53263;SDS011;39153;52.680;6.172;2024-02-04T14:27:26;6.20;;;1.50;;
53263;SDS011;39153;52.680;6.172;2024-02-04T14:29:51;7.90;;;1.63;;
53263;SDS011;39153;52.680;6.172;2024-02-04T14:32:17;8.02;;;2.20;;
53263;SDS011;39153;52.680;6.172;2024-02-04T14:34:43;7.43;;;2.00;;
53263;SDS011;39153;52.680;6.172;2024-02-04T14:37:09;7.20;;;2.20;;
53263;SDS011;39153;52.680;6.172;2024-02-04T14:39:36;11.73;;;2.75;;
53263;SDS011;39153;52.680;6.172;2024-02-04T14:42:02;8.93;;;2.85;;
53263;SDS011;39153;52.680;6.172;2024-02-04T14:44:27;10.07;;;3.50;;
53263;SDS011;39153;52.680;6.172;2024-02-04T14:46:54;11.55;;;3.72;;